首页
METAR-TAF:

METAR-TAF

机场 :

兰州中川国际机场

兰州, 中华人民共和国

纬度: 36-02N, 经度: 103-52E, 海拔: 1518米

当前天气观测

该预报发布于29分钟前的02:00 UTC
风速4节,风向西南,在南转南东西转西北之间变化
温度 21°C
湿度 73%
气压 1014 hPa
能見度: 6000

METAR: ZLLL 190200Z 22002MPS 160V290 6000 NSC 21/16 Q1014 NOSIG

时间: 10:29 (02:29 UTC)

预报

该预报发布于7小时和16分钟前的19:13 UTC
预报有效从19日的 00点(UTC)到 19日的 24点(UTC)
风速6节,风向
能見度: 6000
散云层高于4000英尺
短暂存在
从 19日的 06点(UTC)到 19日的 12点(UTC)
少量云层高于3300英尺, 积雨云.
散云层高于4000英尺
小阵雨

TAF: ZLLL 181913Z 1900/1924 17003MPS 6000 SCT040 TX27/1909Z TN16/1922Z TEMPO 1906/1912 -SHRA FEW033CB SCT040

超过4000个机场的气象观测和天气预报(METAR&TAF报告)。

可查询的气象台以黄色和红色小点在地图上表示。

将鼠标移到小点上方,可查看气象台名称。

然后点击查看天气观测和预报。

如需切换地图:点击带黑十字的绿色按钮放大地图;点击带横线的绿色按钮缩小地图;或者点击绿色箭头查看邻近地区的地图。


METAR-TAF: